sensor_id;sensor_type;location;lat;lon;timestamp;P1;durP1;ratioP1;P2;durP2;ratioP2
14599;SDS011;7386;45.586;12.854;2022-08-23T00:01:26;6.47;;;3.10;;
14599;SDS011;7386;45.586;12.854;2022-08-23T00:03:58;5.55;;;2.60;;
14599;SDS011;7386;45.586;12.854;2022-08-23T00:06:28;6.45;;;2.80;;
14599;SDS011;7386;45.586;12.854;2022-08-23T00:08:57;5.22;;;2.20;;
14599;SDS011;7386;45.586;12.854;2022-08-23T00:11:26;3.58;;;2.60;;
14599;SDS011;7386;45.586;12.854;2022-08-23T00:13:55;6.55;;;2.40;;
14599;SDS011;7386;45.586;12.854;2022-08-23T00:16:26;4.25;;;2.58;;
14599;SDS011;7386;45.586;12.854;2022-08-23T00:18:54;4.75;;;2.63;;
14599;SDS011;7386;45.586;12.854;2022-08-23T00:21:23;6.82;;;3.15;;
14599;SDS011;7386;45.586;12.854;2022-08-23T00:23:52;3.63;;;2.25;;
14599;SDS011;7386;45.586;12.854;2022-08-23T00:26:21;3.15;;;2.40;;
14599;SDS011;7386;45.586;12.854;2022-08-23T00:28:51;5.25;;;2.60;;
14599;SDS011;7386;45.586;12.854;2022-08-23T00:31:19;4.78;;;2.33;;
14599;SDS011;7386;45.586;12.854;2022-08-23T00:33:50;3.67;;;2.35;;
14599;SDS011;7386;45.586;12.854;2022-08-23T00:36:18;4.68;;;2.60;;
14599;SDS011;7386;45.586;12.854;2022-08-23T00:38:48;4.72;;;2.50;;
14599;SDS011;7386;45.586;12.854;2022-08-23T00:41:17;4.53;;;2.60;;
14599;SDS011;7386;45.586;12.854;2022-08-23T00:43:46;3.38;;;2.47;;
14599;SDS011;7386;45.586;12.854;2022-08-23T00:46:33;4.40;;;2.20;;
14599;SDS011;7386;45.586;12.854;2022-08-23T00:49:22;5.93;;;2.50;;
14599;SDS011;7386;45.586;12.854;2022-08-23T00:51:53;6.00;;;2.50;;
14599;SDS011;7386;45.586;12.854;2022-08-23T00:54:25;4.45;;;2.60;;
14599;SDS011;7386;45.586;12.854;2022-08-23T00:56:54;4.68;;;2.50;;
14599;SDS011;7386;45.586;12.854;2022-08-23T00:59:23;3.10;;;2.58;;
14599;SDS011;7386;45.586;12.854;2022-08-23T01:01:51;5.35;;;2.70;;
14599;SDS011;7386;45.586;12.854;2022-08-23T01:04:20;3.10;;;2.30;;
14599;SDS011;7386;45.586;12.854;2022-08-23T01:06:52;3.85;;;2.60;;
14599;SDS011;7386;45.586;12.854;2022-08-23T01:09:23;8.25;;;2.78;;
14599;SDS011;7386;45.586;12.854;2022-08-23T01:11:53;5.07;;;2.75;;
14599;SDS011;7386;45.586;12.854;2022-08-23T01:14:24;6.65;;;2.65;;
14599;SDS011;7386;45.586;12.854;2022-08-23T01:16:55;3.75;;;2.72;;
14599;SDS011;7386;45.586;12.854;2022-08-23T01:19:26;3.30;;;2.58;;
14599;SDS011;7386;45.586;12.854;2022-08-23T01:22:00;2.85;;;2.50;;
14599;SDS011;7386;45.586;12.854;2022-08-23T01:24:34;7.63;;;2.90;;
14599;SDS011;7386;45.586;12.854;2022-08-23T01:27:23;4.25;;;2.80;;
14599;SDS011;7386;45.586;12.854;2022-08-23T01:29:52;5.72;;;2.97;;
14599;SDS011;7386;45.586;12.854;2022-08-23T01:32:21;6.57;;;2.80;;
14599;SDS011;7386;45.586;12.854;2022-08-23T01:34:51;4.05;;;2.70;;
14599;SDS011;7386;45.586;12.854;2022-08-23T01:37:19;3.58;;;2.90;;
14599;SDS011;7386;45.586;12.854;2022-08-23T01:39:50;4.40;;;2.60;;
14599;SDS011;7386;45.586;12.854;2022-08-23T01:42:18;4.43;;;2.80;;
14599;SDS011;7386;45.586;12.854;2022-08-23T01:44:47;4.45;;;2.80;;
14599;SDS011;7386;45.586;12.854;2022-08-23T01:47:15;3.95;;;2.97;;
14599;SDS011;7386;45.586;12.854;2022-08-23T01:49:44;4.78;;;2.88;;
14599;SDS011;7386;45.586;12.854;2022-08-23T01:52:12;3.15;;;2.80;;
14599;SDS011;7386;45.586;12.854;2022-08-23T01:54:42;4.13;;;2.90;;
14599;SDS011;7386;45.586;12.854;2022-08-23T01:57:12;3.72;;;2.67;;
14599;SDS011;7386;45.586;12.854;2022-08-23T01:59:41;6.38;;;3.13;;
14599;SDS011;7386;45.586;12.854;2022-08-23T02:02:10;3.60;;;2.60;;
14599;SDS011;7386;45.586;12.854;2022-08-23T02:04:39;3.35;;;2.50;;
14599;SDS011;7386;45.586;12.854;2022-08-23T02:07:08;6.13;;;2.72;;
14599;SDS011;7386;45.586;12.854;2022-08-23T02:09:36;6.68;;;2.70;;
14599;SDS011;7386;45.586;12.854;2022-08-23T02:12:05;3.03;;;2.50;;
14599;SDS011;7386;45.586;12.854;2022-08-23T02:14:36;7.25;;;2.47;;
14599;SDS011;7386;45.586;12.854;2022-08-23T02:17:07;4.15;;;2.50;;
14599;SDS011;7386;45.586;12.854;2022-08-23T02:19:36;4.43;;;2.40;;
14599;SDS011;7386;45.586;12.854;2022-08-23T02:22:05;4.22;;;2.72;;
14599;SDS011;7386;45.586;12.854;2022-08-23T02:24:38;5.20;;;2.50;;
14599;SDS011;7386;45.586;12.854;2022-08-23T02:27:07;5.05;;;2.35;;
14599;SDS011;7386;45.586;12.854;2022-08-23T02:29:37;3.88;;;2.42;;
14599;SDS011;7386;45.586;12.854;2022-08-23T02:32:10;4.97;;;2.40;;
14599;SDS011;7386;45.586;12.854;2022-08-23T02:34:40;4.00;;;2.20;;
14599;SDS011;7386;45.586;12.854;2022-08-23T02:37:16;6.25;;;2.53;;
14599;SDS011;7386;45.586;12.854;2022-08-23T02:39:45;6.60;;;2.30;;
14599;SDS011;7386;45.586;12.854;2022-08-23T02:42:14;3.25;;;2.20;;
14599;SDS011;7386;45.586;12.854;2022-08-23T02:44:44;8.70;;;2.90;;
14599;SDS011;7386;45.586;12.854;2022-08-23T02:47:13;3.42;;;2.13;;
14599;SDS011;7386;45.586;12.854;2022-08-23T02:49:41;5.90;;;2.40;;
14599;SDS011;7386;45.586;12.854;2022-08-23T02:52:10;3.88;;;2.08;;
14599;SDS011;7386;45.586;12.854;2022-08-23T02:54:41;4.18;;;2.28;;
14599;SDS011;7386;45.586;12.854;2022-08-23T02:57:09;5.65;;;2.50;;
14599;SDS011;7386;45.586;12.854;2022-08-23T02:59:38;4.97;;;2.47;;
14599;SDS011;7386;45.586;12.854;2022-08-23T03:02:08;5.38;;;2.50;;
14599;SDS011;7386;45.586;12.854;2022-08-23T03:04:37;4.70;;;2.45;;
14599;SDS011;7386;45.586;12.854;2022-08-23T03:07:06;4.78;;;2.30;;
14599;SDS011;7386;45.586;12.854;2022-08-23T03:09:35;4.20;;;2.53;;
14599;SDS011;7386;45.586;12.854;2022-08-23T03:12:03;3.60;;;2.40;;
14599;SDS011;7386;45.586;12.854;2022-08-23T03:14:32;4.15;;;2.60;;
14599;SDS011;7386;45.586;12.854;2022-08-23T03:17:03;5.07;;;2.70;;
14599;SDS011;7386;45.586;12.854;2022-08-23T03:19:33;4.15;;;2.47;;
14599;SDS011;7386;45.586;12.854;2022-08-23T03:22:02;4.03;;;2.70;;
14599;SDS011;7386;45.586;12.854;2022-08-23T03:24:31;3.47;;;2.80;;
14599;SDS011;7386;45.586;12.854;2022-08-23T03:26:59;4.60;;;2.88;;
14599;SDS011;7386;45.586;12.854;2022-08-23T03:29:28;4.00;;;2.70;;
14599;SDS011;7386;45.586;12.854;2022-08-23T03:31:57;3.63;;;2.90;;
14599;SDS011;7386;45.586;12.854;2022-08-23T03:34:25;5.20;;;3.05;;
14599;SDS011;7386;45.586;12.854;2022-08-23T03:36:56;4.18;;;2.88;;
14599;SDS011;7386;45.586;12.854;2022-08-23T03:39:24;4.47;;;2.97;;
14599;SDS011;7386;45.586;12.854;2022-08-23T03:41:53;4.47;;;2.55;;
14599;SDS011;7386;45.586;12.854;2022-08-23T03:44:21;4.25;;;2.97;;
14599;SDS011;7386;45.586;12.854;2022-08-23T03:46:50;4.22;;;2.85;;
14599;SDS011;7386;45.586;12.854;2022-08-23T03:49:18;6.13;;;3.40;;
14599;SDS011;7386;45.586;12.854;2022-08-23T03:51:47;4.28;;;3.10;;
14599;SDS011;7386;45.586;12.854;2022-08-23T03:54:17;4.35;;;3.05;;
14599;SDS011;7386;45.586;12.854;2022-08-23T03:56:52;4.70;;;3.25;;
14599;SDS011;7386;45.586;12.854;2022-08-23T03:59:21;4.13;;;3.47;;
14599;SDS011;7386;45.586;12.854;2022-08-23T04:01:50;4.50;;;3.28;;
14599;SDS011;7386;45.586;12.854;2022-08-23T04:04:18;7.95;;;3.35;;
14599;SDS011;7386;45.586;12.854;2022-08-23T04:06:47;5.15;;;3.28;;
14599;SDS011;7386;45.586;12.854;2022-08-23T04:09:17;5.03;;;3.00;;
14599;SDS011;7386;45.586;12.854;2022-08-23T04:11:45;7.03;;;3.70;;
14599;SDS011;7386;45.586;12.854;2022-08-23T04:14:14;6.03;;;3.50;;
14599;SDS011;7386;45.586;12.854;2022-08-23T04:16:43;4.63;;;3.25;;
14599;SDS011;7386;45.586;12.854;2022-08-23T04:19:12;4.63;;;3.10;;
14599;SDS011;7386;45.586;12.854;2022-08-23T04:21:43;4.60;;;3.03;;
14599;SDS011;7386;45.586;12.854;2022-08-23T04:24:13;7.95;;;3.50;;
14599;SDS011;7386;45.586;12.854;2022-08-23T04:26:43;4.88;;;3.40;;
14599;SDS011;7386;45.586;12.854;2022-08-23T04:29:15;5.68;;;3.25;;
14599;SDS011;7386;45.586;12.854;2022-08-23T04:31:59;6.63;;;3.95;;
14599;SDS011;7386;45.586;12.854;2022-08-23T04:34:31;5.18;;;3.53;;
14599;SDS011;7386;45.586;12.854;2022-08-23T04:36:59;4.82;;;4.00;;
14599;SDS011;7386;45.586;12.854;2022-08-23T04:39:28;5.85;;;3.92;;
14599;SDS011;7386;45.586;12.854;2022-08-23T04:42:20;5.55;;;3.53;;
14599;SDS011;7386;45.586;12.854;2022-08-23T04:44:48;8.95;;;4.03;;
14599;SDS011;7386;45.586;12.854;2022-08-23T04:47:17;5.90;;;3.67;;
14599;SDS011;7386;45.586;12.854;2022-08-23T04:49:47;6.35;;;3.55;;
14599;SDS011;7386;45.586;12.854;2022-08-23T04:52:15;6.63;;;3.72;;
14599;SDS011;7386;45.586;12.854;2022-08-23T04:54:45;6.15;;;3.60;;
14599;SDS011;7386;45.586;12.854;2022-08-23T04:57:13;5.20;;;3.45;;
14599;SDS011;7386;45.586;12.854;2022-08-23T04:59:43;5.75;;;3.40;;
14599;SDS011;7386;45.586;12.854;2022-08-23T05:02:12;7.82;;;3.67;;
14599;SDS011;7386;45.586;12.854;2022-08-23T05:04:41;3.70;;;2.92;;
14599;SDS011;7386;45.586;12.854;2022-08-23T05:07:09;4.57;;;3.05;;
14599;SDS011;7386;45.586;12.854;2022-08-23T05:09:38;6.28;;;3.53;;
14599;SDS011;7386;45.586;12.854;2022-08-23T05:12:07;4.93;;;3.60;;
14599;SDS011;7386;45.586;12.854;2022-08-23T05:14:36;4.85;;;3.50;;
14599;SDS011;7386;45.586;12.854;2022-08-23T05:17:06;6.35;;;3.97;;
14599;SDS011;7386;45.586;12.854;2022-08-23T05:19:35;4.15;;;3.42;;
14599;SDS011;7386;45.586;12.854;2022-08-23T05:22:12;4.95;;;3.55;;
14599;SDS011;7386;45.586;12.854;2022-08-23T05:24:41;4.95;;;3.50;;
14599;SDS011;7386;45.586;12.854;2022-08-23T05:27:09;7.38;;;3.90;;
14599;SDS011;7386;45.586;12.854;2022-08-23T05:29:39;5.50;;;4.07;;
14599;SDS011;7386;45.586;12.854;2022-08-23T05:32:08;5.57;;;4.10;;
14599;SDS011;7386;45.586;12.854;2022-08-23T05:34:37;4.63;;;3.50;;
14599;SDS011;7386;45.586;12.854;2022-08-23T05:37:05;5.53;;;3.83;;
14599;SDS011;7386;45.586;12.854;2022-08-23T05:39:34;5.95;;;4.10;;
14599;SDS011;7386;45.586;12.854;2022-08-23T05:42:03;7.22;;;4.70;;
14599;SDS011;7386;45.586;12.854;2022-08-23T05:44:31;9.80;;;5.65;;
14599;SDS011;7386;45.586;12.854;2022-08-23T05:47:02;6.93;;;4.65;;
14599;SDS011;7386;45.586;12.854;2022-08-23T05:49:38;8.98;;;5.80;;
14599;SDS011;7386;45.586;12.854;2022-08-23T05:52:08;7.07;;;4.60;;
14599;SDS011;7386;45.586;12.854;2022-08-23T05:54:37;11.38;;;6.00;;
14599;SDS011;7386;45.586;12.854;2022-08-23T05:57:06;10.15;;;6.82;;
14599;SDS011;7386;45.586;12.854;2022-08-23T05:59:36;8.00;;;6.50;;
14599;SDS011;7386;45.586;12.854;2022-08-23T06:02:07;6.63;;;5.80;;
14599;SDS011;7386;45.586;12.854;2022-08-23T06:04:37;8.07;;;6.93;;
14599;SDS011;7386;45.586;12.854;2022-08-23T06:07:06;10.93;;;6.38;;
14599;SDS011;7386;45.586;12.854;2022-08-23T06:09:36;9.40;;;7.03;;
14599;SDS011;7386;45.586;12.854;2022-08-23T06:12:05;9.55;;;6.40;;
14599;SDS011;7386;45.586;12.854;2022-08-23T06:14:34;10.98;;;7.18;;
14599;SDS011;7386;45.586;12.854;2022-08-23T06:17:02;9.88;;;8.77;;
14599;SDS011;7386;45.586;12.854;2022-08-23T06:19:31;13.50;;;7.40;;
14599;SDS011;7386;45.586;12.854;2022-08-23T06:22:01;11.73;;;8.63;;
14599;SDS011;7386;45.586;12.854;2022-08-23T06:24:30;13.52;;;7.45;;
14599;SDS011;7386;45.586;12.854;2022-08-23T06:26:59;11.52;;;6.72;;
14599;SDS011;7386;45.586;12.854;2022-08-23T06:29:28;8.25;;;6.13;;
14599;SDS011;7386;45.586;12.854;2022-08-23T06:31:56;12.50;;;7.55;;
14599;SDS011;7386;45.586;12.854;2022-08-23T06:34:26;9.48;;;8.18;;
14599;SDS011;7386;45.586;12.854;2022-08-23T06:36:59;13.85;;;7.30;;
14599;SDS011;7386;45.586;12.854;2022-08-23T06:39:31;6.90;;;5.50;;
14599;SDS011;7386;45.586;12.854;2022-08-23T06:42:03;9.27;;;6.60;;
14599;SDS011;7386;45.586;12.854;2022-08-23T06:44:53;10.02;;;7.47;;
14599;SDS011;7386;45.586;12.854;2022-08-23T06:47:22;7.43;;;5.07;;
14599;SDS011;7386;45.586;12.854;2022-08-23T06:49:50;9.55;;;5.32;;
14599;SDS011;7386;45.586;12.854;2022-08-23T06:52:23;6.50;;;3.97;;
14599;SDS011;7386;45.586;12.854;2022-08-23T06:54:54;12.18;;;6.13;;
14599;SDS011;7386;45.586;12.854;2022-08-23T06:57:23;10.45;;;6.28;;
14599;SDS011;7386;45.586;12.854;2022-08-23T06:59:51;10.35;;;6.90;;
14599;SDS011;7386;45.586;12.854;2022-08-23T07:02:20;10.73;;;5.35;;
14599;SDS011;7386;45.586;12.854;2022-08-23T07:04:49;9.90;;;6.32;;
14599;SDS011;7386;45.586;12.854;2022-08-23T07:07:19;10.80;;;7.03;;
14599;SDS011;7386;45.586;12.854;2022-08-23T07:09:48;8.95;;;5.43;;
14599;SDS011;7386;45.586;12.854;2022-08-23T07:12:18;9.02;;;6.05;;
14599;SDS011;7386;45.586;12.854;2022-08-23T07:14:47;8.75;;;5.70;;
14599;SDS011;7386;45.586;12.854;2022-08-23T07:17:16;9.65;;;5.32;;
14599;SDS011;7386;45.586;12.854;2022-08-23T07:19:44;7.07;;;4.97;;
14599;SDS011;7386;45.586;12.854;2022-08-23T07:22:13;4.13;;;3.67;;
14599;SDS011;7386;45.586;12.854;2022-08-23T07:24:41;7.03;;;4.60;;
14599;SDS011;7386;45.586;12.854;2022-08-23T07:27:11;7.03;;;5.00;;
14599;SDS011;7386;45.586;12.854;2022-08-23T07:29:40;12.95;;;5.30;;
14599;SDS011;7386;45.586;12.854;2022-08-23T07:32:09;7.30;;;3.80;;
14599;SDS011;7386;45.586;12.854;2022-08-23T07:34:38;4.18;;;3.45;;
14599;SDS011;7386;45.586;12.854;2022-08-23T07:37:06;5.75;;;3.25;;
14599;SDS011;7386;45.586;12.854;2022-08-23T07:39:40;5.38;;;2.97;;
14599;SDS011;7386;45.586;12.854;2022-08-23T07:42:09;8.25;;;3.80;;
14599;SDS011;7386;45.586;12.854;2022-08-23T07:44:51;5.20;;;3.65;;
14599;SDS011;7386;45.586;12.854;2022-08-23T07:47:19;5.45;;;4.00;;
14599;SDS011;7386;45.586;12.854;2022-08-23T07:49:48;5.75;;;4.05;;
14599;SDS011;7386;45.586;12.854;2022-08-23T07:52:17;6.53;;;4.15;;
14599;SDS011;7386;45.586;12.854;2022-08-23T07:54:45;6.70;;;4.30;;
14599;SDS011;7386;45.586;12.854;2022-08-23T07:57:15;12.15;;;5.10;;
14599;SDS011;7386;45.586;12.854;2022-08-23T07:59:46;7.40;;;4.70;;
14599;SDS011;7386;45.586;12.854;2022-08-23T08:02:16;10.57;;;4.63;;
14599;SDS011;7386;45.586;12.854;2022-08-23T08:04:45;7.15;;;4.43;;
14599;SDS011;7386;45.586;12.854;2022-08-23T08:07:13;7.22;;;4.45;;
14599;SDS011;7386;45.586;12.854;2022-08-23T08:09:46;5.95;;;4.05;;
14599;SDS011;7386;45.586;12.854;2022-08-23T08:12:15;11.85;;;4.10;;
14599;SDS011;7386;45.586;12.854;2022-08-23T08:14:43;9.48;;;5.18;;
14599;SDS011;7386;45.586;12.854;2022-08-23T08:17:13;8.75;;;4.63;;
14599;SDS011;7386;45.586;12.854;2022-08-23T08:19:50;7.07;;;4.80;;
14599;SDS011;7386;45.586;12.854;2022-08-23T08:22:19;10.20;;;6.40;;
14599;SDS011;7386;45.586;12.854;2022-08-23T08:24:48;7.47;;;5.03;;
14599;SDS011;7386;45.586;12.854;2022-08-23T08:27:18;5.38;;;3.83;;
14599;SDS011;7386;45.586;12.854;2022-08-23T08:29:47;7.50;;;4.25;;
14599;SDS011;7386;45.586;12.854;2022-08-23T08:32:17;8.80;;;4.40;;
14599;SDS011;7386;45.586;12.854;2022-08-23T08:34:45;7.43;;;4.50;;
14599;SDS011;7386;45.586;12.854;2022-08-23T08:37:15;9.02;;;6.15;;
14599;SDS011;7386;45.586;12.854;2022-08-23T08:39:43;7.28;;;4.72;;
14599;SDS011;7386;45.586;12.854;2022-08-23T08:42:18;9.68;;;6.60;;
14599;SDS011;7386;45.586;12.854;2022-08-23T08:44:57;9.27;;;6.07;;
14599;SDS011;7386;45.586;12.854;2022-08-23T08:47:31;13.00;;;7.35;;
14599;SDS011;7386;45.586;12.854;2022-08-23T08:50:06;13.10;;;7.50;;
14599;SDS011;7386;45.586;12.854;2022-08-23T08:52:43;10.63;;;5.63;;
14599;SDS011;7386;45.586;12.854;2022-08-23T08:55:16;9.50;;;4.50;;
14599;SDS011;7386;45.586;12.854;2022-08-23T08:57:49;11.90;;;5.68;;
14599;SDS011;7386;45.586;12.854;2022-08-23T09:00:22;14.13;;;7.95;;
14599;SDS011;7386;45.586;12.854;2022-08-23T09:02:51;15.50;;;7.00;;
14599;SDS011;7386;45.586;12.854;2022-08-23T09:05:22;12.60;;;5.18;;
14599;SDS011;7386;45.586;12.854;2022-08-23T09:07:58;15.45;;;6.80;;
14599;SDS011;7386;45.586;12.854;2022-08-23T09:10:46;16.80;;;5.75;;
14599;SDS011;7386;45.586;12.854;2022-08-23T09:16:22;12.77;;;4.32;;
14599;SDS011;7386;45.586;12.854;2022-08-23T09:18:58;11.73;;;4.85;;
14599;SDS011;7386;45.586;12.854;2022-08-23T09:21:30;9.23;;;4.53;;
14599;SDS011;7386;45.586;12.854;2022-08-23T09:24:08;9.43;;;4.03;;
14599;SDS011;7386;45.586;12.854;2022-08-23T09:26:37;10.82;;;3.65;;
14599;SDS011;7386;45.586;12.854;2022-08-23T09:29:20;13.98;;;7.50;;
14599;SDS011;7386;45.586;12.854;2022-08-23T09:31:50;9.13;;;5.72;;
14599;SDS011;7386;45.586;12.854;2022-08-23T09:34:21;9.63;;;5.22;;
14599;SDS011;7386;45.586;12.854;2022-08-23T09:37:05;15.45;;;10.32;;
14599;SDS011;7386;45.586;12.854;2022-08-23T09:39:43;12.13;;;6.90;;
14599;SDS011;7386;45.586;12.854;2022-08-23T09:42:26;14.45;;;7.75;;
14599;SDS011;7386;45.586;12.854;2022-08-23T09:44:58;21.13;;;11.18;;
14599;SDS011;7386;45.586;12.854;2022-08-23T09:47:29;16.73;;;8.05;;
14599;SDS011;7386;45.586;12.854;2022-08-23T09:50:09;11.70;;;6.22;;
14599;SDS011;7386;45.586;12.854;2022-08-23T09:52:44;13.35;;;7.30;;
14599;SDS011;7386;45.586;12.854;2022-08-23T09:55:26;17.00;;;9.68;;
14599;SDS011;7386;45.586;12.854;2022-08-23T09:57:58;9.10;;;7.07;;
14599;SDS011;7386;45.586;12.854;2022-08-23T10:00:29;14.13;;;5.50;;
14599;SDS011;7386;45.586;12.854;2022-08-23T10:03:19;12.10;;;6.57;;
14599;SDS011;7386;45.586;12.854;2022-08-23T10:05:50;11.23;;;6.93;;
14599;SDS011;7386;45.586;12.854;2022-08-23T10:08:21;8.85;;;4.50;;
14599;SDS011;7386;45.586;12.854;2022-08-23T10:10:54;15.50;;;9.85;;
14599;SDS011;7386;45.586;12.854;2022-08-23T10:13:29;9.52;;;6.18;;
14599;SDS011;7386;45.586;12.854;2022-08-23T10:16:01;10.57;;;5.82;;
14599;SDS011;7386;45.586;12.854;2022-08-23T10:18:44;18.00;;;12.52;;
14599;SDS011;7386;45.586;12.854;2022-08-23T10:21:22;16.17;;;8.75;;
14599;SDS011;7386;45.586;12.854;2022-08-23T10:23:56;9.32;;;5.07;;
14599;SDS011;7386;45.586;12.854;2022-08-23T10:26:41;20.45;;;13.48;;
14599;SDS011;7386;45.586;12.854;2022-08-23T10:29:17;13.20;;;9.10;;
14599;SDS011;7386;45.586;12.854;2022-08-23T10:32:10;10.75;;;5.80;;
14599;SDS011;7386;45.586;12.854;2022-08-23T10:34:49;18.98;;;12.73;;
14599;SDS011;7386;45.586;12.854;2022-08-23T10:37:32;18.23;;;11.13;;
14599;SDS011;7386;45.586;12.854;2022-08-23T10:40:11;14.70;;;8.82;;
14599;SDS011;7386;45.586;12.854;2022-08-23T10:42:47;31.05;;;21.33;;
14599;SDS011;7386;45.586;12.854;2022-08-23T10:45:26;18.58;;;13.35;;
14599;SDS011;7386;45.586;12.854;2022-08-23T10:48:11;26.55;;;19.83;;
14599;SDS011;7386;45.586;12.854;2022-08-23T10:50:48;11.23;;;8.20;;
14599;SDS011;7386;45.586;12.854;2022-08-23T10:53:22;14.18;;;9.35;;
14599;SDS011;7386;45.586;12.854;2022-08-23T10:55:56;11.55;;;5.65;;
14599;SDS011;7386;45.586;12.854;2022-08-23T10:58:42;12.85;;;5.03;;
14599;SDS011;7386;45.586;12.854;2022-08-23T11:01:15;12.00;;;6.15;;
14599;SDS011;7386;45.586;12.854;2022-08-23T11:03:49;18.73;;;11.50;;
14599;SDS011;7386;45.586;12.854;2022-08-23T11:06:28;16.88;;;11.13;;
14599;SDS011;7386;45.586;12.854;2022-08-23T11:12:20;19.67;;;12.70;;
14599;SDS011;7386;45.586;12.854;2022-08-23T11:15:12;13.80;;;6.63;;
14599;SDS011;7386;45.586;12.854;2022-08-23T11:17:58;11.43;;;5.50;;
14599;SDS011;7386;45.586;12.854;2022-08-23T11:23:44;11.43;;;5.10;;
14599;SDS011;7386;45.586;12.854;2022-08-23T11:29:33;21.40;;;13.95;;
14599;SDS011;7386;45.586;12.854;2022-08-23T11:32:21;22.98;;;15.45;;
14599;SDS011;7386;45.586;12.854;2022-08-23T11:34:59;17.60;;;10.00;;
14599;SDS011;7386;45.586;12.854;2022-08-23T11:40:37;12.02;;;5.93;;
14599;SDS011;7386;45.586;12.854;2022-08-23T11:43:34;18.17;;;11.45;;
14599;SDS011;7386;45.586;12.854;2022-08-23T11:46:19;25.52;;;18.10;;
14599;SDS011;7386;45.586;12.854;2022-08-23T11:49:09;14.02;;;9.50;;
14599;SDS011;7386;45.586;12.854;2022-08-23T11:52:18;10.00;;;6.40;;
14599;SDS011;7386;45.586;12.854;2022-08-23T11:57:53;7.82;;;5.30;;
14599;SDS011;7386;45.586;12.854;2022-08-23T12:00:45;9.27;;;4.80;;
14599;SDS011;7386;45.586;12.854;2022-08-23T12:03:25;10.90;;;7.45;;
14599;SDS011;7386;45.586;12.854;2022-08-23T12:06:05;19.52;;;12.60;;
14599;SDS011;7386;45.586;12.854;2022-08-23T12:08:54;33.63;;;21.85;;
14599;SDS011;7386;45.586;12.854;2022-08-23T12:14:31;11.13;;;5.65;;
14599;SDS011;7386;45.586;12.854;2022-08-23T12:17:03;12.40;;;8.02;;
14599;SDS011;7386;45.586;12.854;2022-08-23T12:19:56;13.23;;;9.30;;
14599;SDS011;7386;45.586;12.854;2022-08-23T12:22:29;24.92;;;17.35;;
14599;SDS011;7386;45.586;12.854;2022-08-23T12:25:19;19.50;;;9.48;;
14599;SDS011;7386;45.586;12.854;2022-08-23T12:27:50;13.70;;;9.75;;
14599;SDS011;7386;45.586;12.854;2022-08-23T12:30:24;18.48;;;11.05;;
14599;SDS011;7386;45.586;12.854;2022-08-23T12:32:57;12.52;;;7.88;;
14599;SDS011;7386;45.586;12.854;2022-08-23T12:35:34;10.13;;;6.97;;
14599;SDS011;7386;45.586;12.854;2022-08-23T12:38:16;9.43;;;6.40;;
14599;SDS011;7386;45.586;12.854;2022-08-23T12:40:51;13.25;;;8.50;;
14599;SDS011;7386;45.586;12.854;2022-08-23T12:43:23;12.13;;;8.20;;
14599;SDS011;7386;45.586;12.854;2022-08-23T12:45:54;10.52;;;6.72;;
14599;SDS011;7386;45.586;12.854;2022-08-23T12:48:27;15.25;;;11.80;;
14599;SDS011;7386;45.586;12.854;2022-08-23T12:50:57;12.32;;;9.48;;
14599;SDS011;7386;45.586;12.854;2022-08-23T12:53:30;14.05;;;6.50;;
14599;SDS011;7386;45.586;12.854;2022-08-23T12:56:00;16.05;;;9.73;;
14599;SDS011;7386;45.586;12.854;2022-08-23T12:58:31;13.98;;;8.65;;
14599;SDS011;7386;45.586;12.854;2022-08-23T13:01:04;11.35;;;6.85;;
14599;SDS011;7386;45.586;12.854;2022-08-23T13:03:35;12.77;;;9.00;;
14599;SDS011;7386;45.586;12.854;2022-08-23T13:06:07;9.63;;;7.43;;
14599;SDS011;7386;45.586;12.854;2022-08-23T13:08:40;8.43;;;6.60;;
14599;SDS011;7386;45.586;12.854;2022-08-23T13:11:13;16.05;;;11.85;;
14599;SDS011;7386;45.586;12.854;2022-08-23T13:13:45;10.75;;;7.20;;
14599;SDS011;7386;45.586;12.854;2022-08-23T13:16:24;16.15;;;10.88;;
14599;SDS011;7386;45.586;12.854;2022-08-23T13:18:54;11.80;;;7.35;;
14599;SDS011;7386;45.586;12.854;2022-08-23T13:21:36;11.45;;;5.65;;
14599;SDS011;7386;45.586;12.854;2022-08-23T13:27:18;5.90;;;3.33;;
14599;SDS011;7386;45.586;12.854;2022-08-23T13:29:51;11.30;;;7.45;;
14599;SDS011;7386;45.586;12.854;2022-08-23T13:32:32;11.27;;;7.38;;
14599;SDS011;7386;45.586;12.854;2022-08-23T13:38:00;6.03;;;3.88;;
14599;SDS011;7386;45.586;12.854;2022-08-23T13:40:46;14.23;;;8.60;;
14599;SDS011;7386;45.586;12.854;2022-08-23T13:43:30;18.02;;;12.55;;
14599;SDS011;7386;45.586;12.854;2022-08-23T13:46:09;13.13;;;7.57;;
14599;SDS011;7386;45.586;12.854;2022-08-23T13:48:43;9.15;;;5.28;;
14599;SDS011;7386;45.586;12.854;2022-08-23T13:51:15;5.03;;;3.65;;
14599;SDS011;7386;45.586;12.854;2022-08-23T13:53:46;14.52;;;10.50;;
14599;SDS011;7386;45.586;12.854;2022-08-23T13:56:16;9.73;;;7.38;;
14599;SDS011;7386;45.586;12.854;2022-08-23T13:58:51;9.85;;;4.78;;
14599;SDS011;7386;45.586;12.854;2022-08-23T14:01:21;9.07;;;5.95;;
14599;SDS011;7386;45.586;12.854;2022-08-23T14:03:50;9.57;;;5.65;;
14599;SDS011;7386;45.586;12.854;2022-08-23T14:06:19;9.50;;;5.40;;
14599;SDS011;7386;45.586;12.854;2022-08-23T14:08:48;10.32;;;4.57;;
14599;SDS011;7386;45.586;12.854;2022-08-23T14:11:19;11.70;;;6.63;;
14599;SDS011;7386;45.586;12.854;2022-08-23T14:13:47;8.55;;;5.43;;
14599;SDS011;7386;45.586;12.854;2022-08-23T14:16:17;8.40;;;5.15;;
14599;SDS011;7386;45.586;12.854;2022-08-23T14:19:00;10.73;;;4.28;;
14599;SDS011;7386;45.586;12.854;2022-08-23T14:21:49;10.13;;;3.95;;
14599;SDS011;7386;45.586;12.854;2022-08-23T14:24:19;6.38;;;3.60;;
14599;SDS011;7386;45.586;12.854;2022-08-23T14:26:49;14.48;;;8.00;;
14599;SDS011;7386;45.586;12.854;2022-08-23T14:29:18;10.55;;;5.28;;
14599;SDS011;7386;45.586;12.854;2022-08-23T14:31:48;7.45;;;3.70;;
14599;SDS011;7386;45.586;12.854;2022-08-23T14:34:18;11.60;;;7.45;;
14599;SDS011;7386;45.586;12.854;2022-08-23T14:36:47;7.00;;;4.15;;
14599;SDS011;7386;45.586;12.854;2022-08-23T14:39:36;9.00;;;4.43;;
14599;SDS011;7386;45.586;12.854;2022-08-23T14:42:06;6.45;;;3.30;;
14599;SDS011;7386;45.586;12.854;2022-08-23T14:44:35;6.47;;;3.88;;
14599;SDS011;7386;45.586;12.854;2022-08-23T14:47:04;4.65;;;3.42;;
14599;SDS011;7386;45.586;12.854;2022-08-23T14:49:33;7.45;;;4.00;;
14599;SDS011;7386;45.586;12.854;2022-08-23T14:52:01;6.95;;;4.18;;
14599;SDS011;7386;45.586;12.854;2022-08-23T14:54:33;20.35;;;13.57;;
14599;SDS011;7386;45.586;12.854;2022-08-23T14:57:01;13.85;;;7.68;;
14599;SDS011;7386;45.586;12.854;2022-08-23T14:59:31;7.70;;;4.38;;
14599;SDS011;7386;45.586;12.854;2022-08-23T15:02:00;10.82;;;8.27;;
14599;SDS011;7386;45.586;12.854;2022-08-23T15:04:30;18.88;;;11.90;;
14599;SDS011;7386;45.586;12.854;2022-08-23T15:07:00;15.60;;;10.10;;
14599;SDS011;7386;45.586;12.854;2022-08-23T15:09:45;9.57;;;5.38;;
14599;SDS011;7386;45.586;12.854;2022-08-23T15:12:14;13.30;;;8.88;;
14599;SDS011;7386;45.586;12.854;2022-08-23T15:15:06;15.68;;;10.00;;
14599;SDS011;7386;45.586;12.854;2022-08-23T15:17:40;11.00;;;5.50;;
14599;SDS011;7386;45.586;12.854;2022-08-23T15:20:13;14.65;;;7.38;;
14599;SDS011;7386;45.586;12.854;2022-08-23T15:22:42;25.33;;;18.15;;
14599;SDS011;7386;45.586;12.854;2022-08-23T15:25:21;15.43;;;10.48;;
14599;SDS011;7386;45.586;12.854;2022-08-23T15:27:50;16.58;;;7.43;;
14599;SDS011;7386;45.586;12.854;2022-08-23T15:30:21;13.00;;;7.03;;
14599;SDS011;7386;45.586;12.854;2022-08-23T15:32:49;27.13;;;17.05;;
14599;SDS011;7386;45.586;12.854;2022-08-23T15:35:22;16.75;;;9.48;;
14599;SDS011;7386;45.586;12.854;2022-08-23T15:37:52;13.80;;;6.40;;
14599;SDS011;7386;45.586;12.854;2022-08-23T15:40:22;11.95;;;7.43;;